Saturday, October 25, 2014
19:05 UTC
  |  Log In   |  Register Free
Airport Search:

Raton Municipal/Crews Field Airport
(KRTN)

Raton Municipal/Crews Field Airport Diagram
No Airport Diagram Available

FAA data valid effective September 18, 2014 - November 13, 2014 (unless otherwise noted).

 
 
 
 
 
 
 
 
 
 
 
 
 
 

Current Aviation Weather for Raton Municipal/Crews Field Airport (KRTN)

The most recent METAR observation for KRTN was updated at: 1817
METAR Summary (Translated METAR)
KRTN
251753Z AUTO 00000KT 10SM CLR 26/M06 A3026 RMK AO2 SLP175 T02561061 10256 20028 58012
KTAD
251754Z AUTO 06003KT 10SM CLR 24/M03 A3025 RMK AO2 SLP173 T02441028 10244 20089 58007
(32 nm NE from KRTN)
KAXX
251755Z AUTO 00000KT 10SM CLR 18/M06 A3042 RMK AO2 T01841062 10184 21076
(42.6 nm SW from KRTN)
TAF
No TAF information found within 50 nm of KRTN
  Airport Weather Conditions for KRTN

 Current Weather at RTN
78° F
Fair
North winds at 0.0 mph
RTN NOAA Radar

Pressure: 30.26 in
Humidity: 12%
Wind: Calm
Dew Point: 21.0°F
Visibility: 10.00 mi


Airport Weather Forecast for KRTN

Translated METAR and TAF for KRTN
Translated METAR for KRTN (1900 UTC 25 October 2014)
found at http://aviationweather.gov/adds/metars/
 
METAR text: KRTN 251853Z AUTO 17009KT 10SM CLR 27/M07 A3022 RMK AO2 SLP160 T02671067
Conditions at: KRTN (RATON , NM, US) observed 1853 UTC 25 October 2014
Temperature: 26.7°C (80°F)
Dewpoint: -6.7°C (20°F) [RH = 11%]
Pressure (altimeter): 30.22 inches Hg (1023.5 mb)
[Sea-level pressure: 1016.0 mb]
Winds: from the S (170 degrees) at 10 MPH (9 knots; 4.7 m/s)
Visibility: 10 or more miles (16+ km)
Ceiling: at least 12,000 feet AGL
Clouds: sky clear below 12,000 feet AGL
Weather: automated observation with no human augmentation;
there may or may not be significant weather present at this time
Translated TAF for KRTN

There is no translated TAF available for this airport

Find All Airport Services Find A Hotel Find A Rental Car Find A Golf Course Find A Restaurant $100 Hamburger



FBO's on the Field
FBO Company Facility Photos Services Transportation Aviation Fuel Prices: Prices include tax
Catering Weather Repair Courtesy Rental Type 100LL JetA JetA+ MOGAS 8087
 
Pegasus Aviation

This FBO has not yet been rated
FS: Phillips 66
Last Updated: Oct-06
Login to update fuel prices
SS:
Contact Pegasus AviationMore FBO Information
 
Add another FBO Facility Photos Catering Weather Repair Courtesy Rental Type 100LL JetA JetA+ MOGAS 8087
Services Transportation Aviation Fuel Prices: Prices include tax


model-print
model-print
model-print
model-print